Latest Weather Observations for Renmark Airport

IDS60801

Issued at 5:31 pm CDT Friday 6 March 2015 (issued every 30 minutes, with the page automatically refreshed every 10 minutes)

About weather observations | Map of weather stations | Latest weather observations for SA | Other Formats
Station Details ID: 024048 Name: RENMARK AERO Lat: -34.20 Lon: 140.68 Height: 31.5 m
Data from the previous 72 hours. | See also: Recent months at Renmark Airport
Date/Time
CDT
Temp
°C
App
Temp
°C
Dew
Point
Rel
Hum
%
Delta-T
°C
Wind Press
QNH
hPa
Press
MSL
hPa
Rain
since 9 am
mm
Dir
 
Spd
km/h
Gust
km/h
Spd
kts
Gust
kts
06/05:30pm 25.2 19.2 6.9 31 9.6 SSW 28 41 15 22 1013.5 1013.4 0.0
06/05:00pm 25.9 20.9 6.5 29 10.1 SSW 22 33 12 18 1013.5 1013.4 0.0
06/04:30pm 25.5 20.2 6.7 30 9.8 SW 24 35 13 19 1013.5 1013.4 0.0
06/04:00pm 25.6 19.7 7.7 32 9.5 SSW 28 39 15 21 1013.7 1013.6 0.0
06/03:30pm 25.7 21.4 7.8 32 9.5 SW 20 32 11 17 1014.2 1014.1 0.0
06/03:00pm 25.1 20.5 8.1 34 9.1 SSW 22 39 12 21 1014.7 1014.6 0.0
06/02:30pm 24.1 19.4 7.7 35 8.6 SSW 22 32 12 17 1015.2 1015.1 0.0
06/02:00pm 23.6 18.9 7.7 36 8.4 SSW 22 30 12 16 1015.7 1015.6 0.0
06/01:30pm 24.2 18.7 7.4 34 8.8 SW 26 35 14 19 1016.1 1016.0 0.0
06/01:00pm 22.5 17.8 7.9 39 7.7 SW 22 43 12 23 1016.5 1016.4 0.0
06/12:30pm 22.1 16.6 7.5 39 7.6 SSW 26 39 14 21 1017.0 1016.9 0.0
06/12:00pm 20.8 15.4 8.1 44 6.6 SSW 26 39 14 21 1017.5 1017.4 0.0
06/11:30am 20.2 15.4 8.8 48 6.0 SSW 24 33 13 18 1018.1 1018.0 0.0
06/11:00am 18.8 14.4 9.0 53 5.1 SW 22 33 12 18 1018.7 1018.6 0.0
06/10:30am 18.0 13.6 8.8 55 4.8 SSW 22 35 12 19 1018.8 1018.7 0.0
06/10:00am 16.8 12.7 8.8 59 4.1 SSW 20 32 11 17 1018.7 1018.6 0.0
06/09:30am 15.9 11.4 8.6 62 3.7 SSW 22 35 12 19 1018.9 1018.8 0.0
06/09:00am 15.5 11.4 8.0 61 3.8 SW 19 26 10 14 1018.6 1018.5 0.0
06/08:30am 14.6 10.9 7.9 64 3.3 WSW 17 24 9 13 1018.5 1018.4 0.0
06/08:00am 13.0 10.0 7.7 70 2.6 WSW 13 19 7 10 1018.4 1018.3 0.0
06/07:30am 12.4 9.3 7.3 71 2.5 WSW 13 19 7 10 1018.3 1018.2 0.0
06/07:00am 11.7 9.0 7.2 74 2.2 W 11 15 6 8 1018.3 1018.2 0.0
06/06:30am 10.5 8.4 6.8 78 1.7 W 7 9 4 5 1018.3 1018.2 0.0
06/06:00am 10.4 7.9 6.7 78 1.7 W 9 11 5 6 1018.2 1018.1 0.0
06/05:30am 9.4 6.8 6.1 80 1.5 W 9 11 5 6 1018.1 1018.0 0.0
06/05:00am 9.3 7.0 5.9 79 1.6 WSW 7 11 4 6 1018.1 1018.0 0.0
06/04:30am 9.8 7.2 6.0 77 1.7 WSW 9 11 5 6 1018.1 1018.0 0.0
06/04:00am 10.3 7.3 5.9 74 2.0 WSW 11 13 6 7 1018.3 1018.2 0.0
06/03:30am 10.1 7.4 5.5 73 2.1 WSW 9 9 5 5 1018.3 1018.2 0.0
06/03:00am 11.0 8.0 6.0 71 2.3 W 11 13 6 7 1018.6 1018.5 0.0
06/02:30am 11.2 8.5 5.7 69 2.5 W 9 11 5 6 1019.2 1019.1 0.0
06/02:00am 12.1 9.5 5.9 66 2.9 WSW 9 9 5 5 1019.6 1019.5 0.0
06/01:30am 13.1 10.1 6.2 63 3.3 SSW 11 17 6 9 1020.3 1020.2 0.0
06/01:00am 13.5 10.5 6.1 61 3.5 SSW 11 19 6 10 1020.5 1020.4 0.0
06/12:30am 14.0 10.3 6.1 59 3.8 SSW 15 24 8 13 1020.6 1020.5 0.0
06/12:00am 14.5 10.0 6.1 57 4.0 SSW 19 26 10 14 1020.6 1020.5 0.0
 
Date/Time
CDT
Temp
°C
App
Temp
°C
Dew
Point
Rel
Hum
%
Delta-T
°C
Wind Press
QNH
hPa
Press
MSL
hPa
Rain
since 9 am
mm
Dir
 
Spd
km/h
Gust
km/h
Spd
kts
Gust
kts
05/11:30pm 14.7 10.1 5.8 55 4.2 SSW 19 24 10 13 1020.8 1020.7 0.0
05/11:00pm 15.3 10.5 5.5 52 4.7 SSW 20 32 11 17 1020.7 1020.6 0.0
05/10:30pm 15.9 11.0 5.2 49 5.1 SSW 20 28 11 15 1020.6 1020.5 0.0
05/10:00pm 16.8 10.6 4.5 44 5.8 SSW 26 39 14 21 1020.5 1020.4 0.0
05/09:30pm 17.6 12.1 4.2 41 6.3 SSW 22 32 12 17 1019.9 1019.8 0.0
05/09:00pm 18.5 12.5 3.2 36 7.1 SSW 24 37 13 20 1019.8 1019.7 0.0
05/08:30pm 19.5 13.3 2.4 32 7.9 SSW 24 35 13 19 1019.6 1019.5 0.0
05/08:00pm 20.4 14.0 0.8 27 8.8 SSW 24 37 13 20 1019.1 1019.0 0.0
05/07:30pm 21.6 15.4 -0.4 23 9.8 SSW 22 32 12 17 1018.7 1018.6 0.0
05/07:00pm 22.9 15.9 -0.6 21 10.5 SSW 26 39 14 21 1018.4 1018.3 0.0
05/06:30pm 23.8 17.0 -1.9 18 11.3 SW 24 35 13 19 1018.1 1018.0 0.0
05/06:00pm 24.0 17.1 -2.5 17 11.5 SSW 24 35 13 19 1017.9 1017.8 0.0
05/05:30pm 24.6 17.0 -2.0 17 11.7 SSW 28 37 15 20 1017.9 1017.8 0.0
05/05:00pm 24.1 17.1 -3.3 16 11.8 SSW 24 33 13 18 1018.0 1017.9 0.0
05/04:30pm 24.3 18.1 -3.1 16 11.8 S 20 37 11 20 1018.2 1018.1 0.0
05/04:00pm 23.6 16.7 -2.8 17 11.4 SSW 24 35 13 19 1018.4 1018.3 0.0
05/03:30pm 23.6 17.4 -2.8 17 11.4 S 20 35 11 19 1018.8 1018.7 0.0
05/03:00pm 23.2 16.7 -2.4 18 11.1 SSW 22 33 12 18 1019.3 1019.2 0.0
05/02:30pm 21.8 16.0 -1.5 21 10.1 S 19 30 10 16 1019.9 1019.8 0.0
05/02:00pm 21.5 15.3 -0.5 23 9.8 S 22 33 12 18 1020.2 1020.1 0.0
05/01:30pm 21.2 14.9 -0.7 23 9.6 S 22 30 12 16 1020.6 1020.5 0.0
05/01:00pm 20.9 14.7 -0.4 24 9.4 S 22 35 12 19 1021.1 1021.0 0.0
05/12:30pm 20.4 13.9 0.3 26 8.9 S 24 37 13 20 1021.7 1021.6 0.0
05/12:00pm 19.9 12.7 0.9 28 8.5 S 28 43 15 23 1021.8 1021.7 0.0
05/11:30am 19.4 13.4 0.9 29 8.3 S 22 39 12 21 1022.0 1021.9 0.0
05/11:00am 18.6 13.1 2.0 33 7.6 SSE 20 37 11 20 1022.3 1022.2 0.0
05/10:30am 17.9 11.8 3.0 37 6.9 S 24 41 13 22 1022.2 1022.1 0.0
05/10:00am 16.7 10.8 4.1 43 5.9 S 24 37 13 20 1022.1 1022.0 0.0
05/09:30am 16.2 9.4 4.9 47 5.3 S 30 43 16 23 1022.0 1021.9 0.0
05/09:00am 15.8 9.8 5.4 50 4.9 S 26 39 14 21 1021.8 1021.7 0.0
05/08:30am 15.6 7.9 5.5 51 4.8 SSE 35 50 19 27 1021.6 1021.5 0.0
05/08:11am 15.4 9.6 7.9 61 3.8 S 28 46 15 25 1021.3 1021.2 0.0
05/08:00am 15.8 11.8 9.0 64 3.5 S 20 32 11 17 1021.1 1021.0 0.0
05/07:30am 15.4 12.0 9.1 66 3.2 S 17 30 9 16 1020.3 1020.2 0.0
05/07:00am 15.8 10.3 9.0 64 3.5 S 28 39 15 21 1019.7 1019.6 0.0
05/06:30am 15.4 13.6 12.0 80 1.8 SSW 13 20 7 11 1019.3 1019.2 0.0
05/06:00am 15.3 12.8 12.2 82 1.7 SSW 17 22 9 12 1019.2 1019.1 0.0
05/05:30am 15.5 13.5 14.0 91 0.8 SSW 17 28 9 15 1018.5 1018.4 0.0
05/05:00am 15.3 13.8 15.3 100 0.0 SW 17 24 9 13 1018.2 1018.1 0.0
05/04:30am 15.1 12.6 15.1 100 0.0 SW 22 35 12 19 1017.8 1017.7 0.0
05/04:00am 15.9 11.8 13.7 87 1.2 SW 28 41 15 22 1017.5 1017.4 0.0
05/03:30am 17.5 12.0 11.8 69 3.1 SW 32 54 17 29 1017.3 1017.2 0.0
05/03:27am 17.8 13.0 11.6 67 3.4 SSW 28 46 15 25 1017.2 1017.1 0.0
05/03:00am 17.5 15.4 11.3 67 3.4 SW 13 17 7 9 1017.0 1016.9 0.0
05/02:30am 17.7 15.3 11.5 67 3.4 SW 15 22 8 12 1017.2 1017.1 0.0
05/02:00am 18.3 14.6 11.6 65 3.7 SW 22 32 12 17 1017.7 1017.6 0.0
05/01:30am 17.8 16.3 11.8 68 3.3 SW 11 17 6 9 1017.8 1017.7 0.0
05/01:00am 17.6 16.4 11.6 68 3.3 WSW 9 13 5 7 1017.8 1017.7 0.0
05/12:30am 17.6 16.0 11.4 67 3.4 WSW 11 15 6 8 1017.5 1017.4 0.0
05/12:00am 18.1 16.1 11.4 65 3.6 SW 13 17 7 9 1017.2 1017.1 0.0
 
Date/Time
CDT
Temp
°C
App
Temp
°C
Dew
Point
Rel
Hum
%
Delta-T
°C
Wind Press
QNH
hPa
Press
MSL
hPa
Rain
since 9 am
mm
Dir
 
Spd
km/h
Gust
km/h
Spd
kts
Gust
kts
04/11:30pm 18.7 15.6 11.5 63 3.9 SSW 19 30 10 16 1017.2 1017.1 0.0
04/11:00pm 19.3 15.9 11.1 59 4.5 SSW 20 33 11 18 1017.2 1017.1 0.0
04/10:30pm 20.2 15.4 10.3 53 5.3 SSW 26 39 14 21 1017.1 1017.0 0.0
04/10:00pm 21.1 16.4 9.4 47 6.3 SW 24 35 13 19 1016.8 1016.7 0.0
04/09:30pm 22.0 18.4 8.5 42 7.1 SSW 17 24 9 13 1016.1 1016.0 0.0
04/09:00pm 22.7 19.0 8.0 39 7.7 SSW 17 28 9 15 1015.5 1015.4 0.0
04/08:30pm 23.4 18.6 7.5 36 8.3 SSW 22 32 12 17 1014.8 1014.7 0.0
04/08:00pm 24.6 20.1 6.8 32 9.3 SSW 20 32 11 17 1014.3 1014.2 0.0
04/07:30pm 26.0 21.6 5.0 26 10.7 SSW 17 24 9 13 1013.9 1013.8 0.0
04/07:00pm 27.2 22.2 3.7 22 11.8 SW 19 26 10 14 1013.8 1013.7 0.0
04/06:30pm 27.5 22.2 3.2 21 12.1 SW 20 30 11 16 1013.9 1013.8 0.0
04/06:00pm 28.4 24.1 3.3 20 12.6 SW 15 24 8 13 1013.8 1013.7 0.0
04/05:30pm 27.7 22.5 2.7 20 12.3 WSW 19 28 10 15 1014.0 1013.9 0.0
04/05:00pm 28.3 22.5 2.5 19 12.7 WSW 22 39 12 21 1013.9 1013.8 0.0
04/04:30pm 27.7 22.2 2.0 19 12.5 WSW 20 32 11 17 1014.0 1013.9 0.0
04/04:00pm 28.0 23.3 3.0 20 12.4 SW 17 30 9 16 1014.4 1014.3 0.0
04/03:30pm 27.0 21.9 4.1 23 11.5 WSW 20 30 11 16 1014.8 1014.7 0.0
04/03:00pm 26.0 21.3 5.0 26 10.7 SW 19 30 10 16 1015.2 1015.1 0.0
04/02:30pm 25.5 21.5 5.1 27 10.3 WSW 15 30 8 16 1015.8 1015.7 0.0
04/02:00pm 25.0 21.4 5.2 28 10.0 W 13 20 7 11 1016.3 1016.2 0.0
04/01:30pm 23.5 20.4 5.4 31 9.1 SSW 11 22 6 12 1016.7 1016.6 0.0
04/01:00pm 22.8 19.7 5.7 33 8.6 SW 11 20 6 11 1017.2 1017.1 0.0
04/12:30pm 22.4 18.5 7.0 37 7.9 SSW 17 28 9 15 1017.8 1017.7 0.0
04/12:00pm 21.0 17.5 7.3 41 7.0 S 15 30 8 16 1018.3 1018.2 0.0
04/11:30am 21.5 18.7 8.7 44 6.8 S 13 24 7 13 1018.7 1018.6 0.0
04/11:00am 19.7 16.2 8.7 49 5.8 SSW 17 26 9 14 1018.8 1018.7 0.0
04/10:30am 19.0 15.4 8.4 50 5.5 SSE 17 26 9 14 1019.1 1019.0 0.0
04/10:00am 18.4 15.3 8.7 53 5.0 S 15 24 8 13 1018.9 1018.8 0.0
04/09:30am 17.3 13.3 9.0 58 4.3 SSE 20 28 11 15 1019.1 1019.0 0.0
04/09:00am 17.0 13.6 9.2 60 4.0 S 17 24 9 13 1019.0 1018.9 0.0
04/08:30am 16.6 12.9 9.5 63 3.7 SSE 19 26 10 14 1018.8 1018.7 0.0
04/08:00am 15.4 11.8 9.7 69 3.0 S 19 24 10 13 1018.9 1018.8 0.0
04/07:30am 15.3 11.6 10.1 71 2.7 S 20 24 11 13 1018.5 1018.4 0.0
04/07:00am 15.2 12.1 10.2 72 2.6 S 17 22 9 12 1017.9 1017.8 0.0
04/06:30am 15.3 12.9 10.1 71 2.7 S 13 17 7 9 1018.1 1018.0 0.0
04/06:00am 15.3 12.8 9.7 69 2.9 S 13 24 7 13 1017.2 1017.1 0.0
04/05:30am 15.4 11.7 9.3 67 3.1 S 19 28 10 15 1016.7 1016.6 0.0
04/05:00am 15.4 11.0 9.1 66 3.2 S 22 33 12 18 1016.8 1016.7 0.0
04/04:30am 15.7 11.3 8.9 64 3.5 S 22 32 12 17 1016.6 1016.5 0.0
04/04:00am 15.9 12.1 9.1 64 3.5 S 19 28 10 15 1016.7 1016.6 0.0
04/03:30am 15.9 12.1 8.9 63 3.6 SSW 19 24 10 13 1016.7 1016.6 0.0
04/03:00am 16.1 12.6 8.6 61 3.8 SSW 17 24 9 13 1016.9 1016.8 0.0
04/02:30am 16.5 13.2 8.0 57 4.3 S 15 24 8 13 1016.9 1016.8 0.0
04/02:00am 16.7 12.4 7.9 56 4.4 S 20 32 11 17 1017.1 1017.0 0.0
04/01:30am 17.3 12.7 8.2 55 4.6 S 22 35 12 19 1016.9 1016.8 0.0
04/01:00am 18.1 13.3 8.7 54 4.9 S 24 37 13 20 1016.7 1016.6 0.0
04/12:30am 18.7 14.6 8.7 52 5.2 S 20 32 11 17 1016.8 1016.7 0.0
04/12:00am 19.4 14.5 8.4 49 5.7 SSW 24 35 13 19 1017.0 1016.9 0.0
 
Date/Time
CDT
Temp
°C
App
Temp
°C
Dew
Point
Rel
Hum
%
Delta-T
°C
Wind Press
QNH
hPa
Press
MSL
hPa
Rain
since 9 am
mm
Dir
 
Spd
km/h
Gust
km/h
Spd
kts
Gust
kts
03/11:30pm 20.5 15.1 7.8 44 6.6 S 26 39 14 21 1016.8 1016.7 0.0
03/11:00pm 21.7 16.6 7.5 40 7.4 SSW 24 35 13 19 1016.5 1016.4 0.0
03/10:30pm 23.4 18.3 6.2 33 8.8 SSW 22 35 12 19 1016.3 1016.2 0.0
03/10:00pm 24.6 19.7 4.9 28 9.9 SSW 20 30 11 16 1016.1 1016.0 0.0
03/09:30pm 24.9 21.5 5.7 29 9.8 S 13 20 7 11 1016.1 1016.0 0.0
03/09:00pm 25.5 21.5 5.1 27 10.3 SSW 15 20 8 11 1015.8 1015.7 0.0
03/08:30pm 25.7 21.7 4.8 26 10.6 SSW 15 19 8 10 1015.3 1015.3 0.0
03/08:00pm 26.2 22.1 4.6 25 10.9 SSW 15 20 8 11 1015.1 1015.0 0.0
03/07:30pm 27.0 23.0 4.7 24 11.3 SSW 15 22 8 12 1014.6 1014.5 0.0
03/07:00pm 28.3 23.5 4.6 22 12.1 SSW 19 28 10 15 1014.3 1014.2 0.0
03/06:30pm 29.2 23.7 3.9 20 12.9 SSW 22 32 12 17 1014.1 1014.0 0.0
03/06:00pm 29.8 25.6 3.7 19 13.3 SSW 15 22 8 12 1013.9 1013.8 0.0

Other Formats:

Comma delimited format used in spreadsheet applications
http://www.bom.gov.au/fwo/IDS60801/IDS60801.95687.axf

JavaScript Object Notation format (JSON) in row-major order
http://www.bom.gov.au/fwo/IDS60801/IDS60801.95687.json